Time;durP1;ratioP1;P1;durP2;ratioP2;P2;SDS_P1;SDS_P2;PMS_P1;PMS_P2;Temp;Humidity;BMP_temperature;BMP_pressure;BME280_temperature;BME280_humidity;BME280_pressure;Samples;Min_cycle;Max_cycle;Signal;HPM_P1;HPM_P2
2022/10/14 00:01:09;;;;;;;119.55;29.13;;;13.70;92.90;;;;;;5042498;28;20040;-77
2022/10/14 00:03:36;;;;;;;253.15;30.85;;;13.70;92.90;;;;;;5039457;28;20025;-75
2022/10/14 00:06:13;;;;;;;124.55;29.27;;;13.70;92.90;;;;;;5029631;28;20037;-77
2022/10/14 00:08:39;;;;;;;105.72;30.08;;;13.70;92.90;;;;;;5019133;28;20056;-76
2022/10/14 00:11:13;;;;;;;112.18;31.23;;;13.80;92.90;;;;;;5034984;28;20197;-76
2022/10/14 00:13:39;;;;;;;112.68;28.33;;;13.80;93.00;;;;;;5021638;28;20092;-77
2022/10/14 00:16:06;;;;;;;74.80;23.15;;;13.80;92.90;;;;;;5033530;28;20048;-77
2022/10/14 00:18:32;;;;;;;126.38;25.48;;;13.70;92.90;;;;;;5033856;28;20116;-76
2022/10/14 00:20:59;;;;;;;397.02;35.83;;;13.60;92.90;;;;;;5031780;28;20049;-76
2022/10/14 00:23:27;;;;;;;163.68;24.55;;;13.50;93.00;;;;;;5011064;28;20081;-76
2022/10/14 00:25:53;;;;;;;134.85;26.33;;;13.40;93.10;;;;;;5033443;28;20093;-75
2022/10/14 00:28:19;;;;;;;75.53;24.88;;;13.40;93.20;;;;;;5026592;28;20045;-77
2022/10/14 00:30:55;;;;;;;285.95;31.23;;;13.40;93.30;;;;;;5036212;28;20089;-76
2022/10/14 00:33:21;;;;;;;131.15;26.67;;;13.50;93.40;;;;;;5035460;28;20037;-76
2022/10/14 00:36:00;;;;;;;293.88;31.25;;;13.50;93.30;;;;;;5037792;28;20021;-76
2022/10/14 00:38:26;;;;;;;132.77;21.23;;;13.50;93.30;;;;;;5038748;28;20051;-76
2022/10/14 00:40:59;;;;;;;97.40;24.40;;;13.50;93.20;;;;;;5038091;28;20024;-76
2022/10/14 00:43:26;;;;;;;119.75;21.73;;;13.40;93.30;;;;;;5038358;28;20522;-77
2022/10/14 00:45:52;;;;;;;151.27;22.17;;;13.40;93.20;;;;;;5037165;28;20029;-76
2022/10/14 00:48:23;;;;;;;75.82;18.63;;;13.40;93.10;;;;;;5035281;28;20017;-77
2022/10/14 00:50:52;;;;;;;108.50;21.77;;;13.30;93.20;;;;;;5038839;28;20032;-77
2022/10/14 00:53:19;;;;;;;82.10;22.58;;;13.30;93.30;;;;;;5025269;28;20108;-78
2022/10/14 00:55:45;;;;;;;112.90;23.98;;;13.30;93.50;;;;;;5031676;28;20080;-76
2022/10/14 00:58:11;;;;;;;287.20;29.88;;;13.30;93.50;;;;;;5032807;28;20144;-76
2022/10/14 01:00:37;;;;;;;318.70;27.15;;;13.30;93.60;;;;;;5033648;28;20029;-76
2022/10/14 01:03:16;;;;;;;106.90;22.60;;;13.30;93.50;;;;;;5033365;28;20017;-77
2022/10/14 01:06:00;;;;;;;115.10;24.05;;;13.20;93.60;;;;;;5031896;28;20089;-77
2022/10/14 01:08:36;;;;;;;276.67;28.25;;;13.20;93.70;;;;;;5035995;28;20052;-78
2022/10/14 01:11:19;;;;;;;168.63;28.45;;;13.20;93.80;;;;;;5035656;28;20135;-78
2022/10/14 01:13:57;;;;;;;112.72;23.98;;;13.20;93.90;;;;;;5036361;28;20048;-77
2022/10/14 01:16:42;;;;;;;82.57;24.17;;;13.10;93.90;;;;;;5033852;28;20387;-77
2022/10/14 01:19:41;;;;;;;194.18;29.50;;;13.10;94.00;;;;;;5031036;28;20069;-77
2022/10/14 01:22:15;;;;;;;324.77;34.55;;;13.10;94.10;;;;;;5041842;28;20064;-76
2022/10/14 01:24:59;;;;;;;39.03;16.67;;;13.20;93.90;;;;;;5038840;28;20531;-76
2022/10/14 01:28:02;;;;;;;51.75;18.15;;;13.10;93.80;;;;;;5044712;28;20013;-77
2022/10/14 01:30:33;;;;;;;141.77;22.30;;;13.00;93.90;;;;;;5034226;28;20500;-77
2022/10/14 01:33:40;;;;;;;158.32;24.73;;;13.00;93.90;;;;;;5041848;28;20033;-78
2022/10/14 01:36:10;;;;;;;71.05;19.60;;;12.90;94.10;;;;;;5002794;28;20049;-78
2022/10/14 01:38:45;;;;;;;130.05;22.35;;;12.90;94.00;;;;;;5043955;28;20041;-76
2022/10/14 01:41:31;;;;;;;60.67;19.67;;;12.90;94.10;;;;;;5037231;28;20480;-77
2022/10/14 01:44:01;;;;;;;103.22;20.90;;;12.90;94.00;;;;;;5032197;28;20034;-76
2022/10/14 01:46:30;;;;;;;117.63;24.33;;;12.90;94.00;;;;;;5020225;28;20029;-76
2022/10/14 01:49:04;;;;;;;64.00;24.20;;;12.90;94.10;;;;;;5033432;28;20036;-76
2022/10/14 01:51:42;;;;;;;101.32;25.88;;;12.90;94.30;;;;;;5030201;28;20087;-75
2022/10/14 01:54:14;;;;;;;53.33;18.95;;;13.00;94.30;;;;;;5031871;28;20083;-76
2022/10/14 01:56:41;;;;;;;87.55;23.75;;;13.00;94.40;;;;;;5022481;28;20037;-76
2022/10/14 01:59:11;;;;;;;57.47;21.08;;;13.00;94.30;;;;;;5017041;28;20018;-76
2022/10/14 02:01:36;;;;;;;94.95;25.15;;;13.10;94.30;;;;;;5029600;28;20112;-75
2022/10/14 02:04:12;;;;;;;87.25;23.75;;;13.10;94.20;;;;;;5032274;28;20081;-76
2022/10/14 02:06:41;;;;;;;76.10;26.25;;;13.20;94.20;;;;;;5033768;28;20040;-76
2022/10/14 02:09:28;;;;;;;78.28;25.08;;;13.30;94.20;;;;;;5034800;28;20044;-76
2022/10/14 02:12:02;;;;;;;115.70;25.15;;;13.30;94.10;;;;;;5035028;28;20521;-76
2022/10/14 02:14:41;;;;;;;83.82;26.55;;;13.30;94.10;;;;;;5034356;28;20036;-77
2022/10/14 02:17:28;;;;;;;111.28;26.38;;;13.30;94.10;;;;;;5025100;28;20108;-76
2022/10/14 02:19:57;;;;;;;94.40;28.20;;;13.30;94.10;;;;;;5032163;28;20025;-76
2022/10/14 02:22:40;;;;;;;61.03;23.33;;;13.30;94.00;;;;;;5028690;28;20046;-77
2022/10/14 02:25:23;;;;;;;85.20;26.75;;;13.30;94.00;;;;;;5031870;28;20053;-76
2022/10/14 02:27:51;;;;;;;98.18;23.23;;;13.30;94.10;;;;;;5032078;28;20030;-76
2022/10/14 02:30:17;;;;;;;97.78;28.10;;;13.30;94.10;;;;;;5022360;28;20018;-76
2022/10/14 02:32:45;;;;;;;91.97;25.40;;;13.30;94.20;;;;;;5031471;28;20038;-76
2022/10/14 02:35:14;;;;;;;90.43;28.75;;;13.30;94.20;;;;;;5020735;28;20529;-77
2022/10/14 02:37:40;;;;;;;89.35;28.80;;;13.30;94.20;;;;;;5020251;28;20018;-76
2022/10/14 02:40:38;;;;;;;78.03;27.90;;;13.40;94.20;;;;;;5035263;28;20060;-76
2022/10/14 02:43:06;;;;;;;53.40;22.35;;;13.40;94.20;;;;;;5021481;28;20104;-78
2022/10/14 02:45:33;;;;;;;120.45;28.52;;;13.40;94.10;;;;;;5033089;28;20017;-76
2022/10/14 02:47:59;;;;;;;54.53;24.10;;;13.40;94.20;;;;;;5035907;28;20029;-76
2022/10/14 02:50:24;;;;;;;69.68;29.10;;;13.30;94.10;;;;;;5035319;28;20016;-76
2022/10/14 02:52:50;;;;;;;77.95;30.05;;;13.30;94.20;;;;;;5036855;28;20479;-76
2022/10/14 02:55:15;;;;;;;75.70;29.55;;;13.40;94.20;;;;;;5037106;28;20455;-76
2022/10/14 02:57:41;;;;;;;73.63;31.30;;;13.30;94.20;;;;;;5006598;28;20018;-76
2022/10/14 03:00:08;;;;;;;160.95;35.88;;;13.40;94.20;;;;;;5037447;28;20031;-77
2022/10/14 03:02:33;;;;;;;65.40;27.30;;;13.50;94.20;;;;;;5041818;28;20029;-77
2022/10/14 03:04:59;;;;;;;93.68;33.75;;;13.50;94.10;;;;;;5039381;28;20028;-76
2022/10/14 03:07:25;;;;;;;82.35;34.33;;;13.50;94.10;;;;;;5035216;28;20035;-76
2022/10/14 03:09:51;;;;;;;77.80;34.90;;;13.50;94.10;;;;;;5014876;28;20112;-77
2022/10/14 03:12:17;;;;;;;90.47;34.35;;;13.50;94.20;;;;;;5032617;28;20091;-76
2022/10/14 03:14:43;;;;;;;88.15;36.13;;;13.60;94.10;;;;;;5031839;28;20026;-76
2022/10/14 03:17:09;;;;;;;92.20;37.25;;;13.60;94.10;;;;;;5019210;28;20029;-75
2022/10/14 03:19:34;;;;;;;74.82;33.10;;;13.60;94.00;;;;;;5036730;28;20021;-75
2022/10/14 03:22:00;;;;;;;89.38;32.28;;;13.60;94.30;;;;;;5031182;28;20042;-76
2022/10/14 03:24:25;;;;;;;121.07;38.78;;;13.50;94.10;;;;;;5038296;28;20060;-76
2022/10/14 03:26:51;;;;;;;193.77;40.55;;;13.40;94.20;;;;;;5028661;28;20040;-76
2022/10/14 03:29:17;;;;;;;62.65;31.23;;;13.40;94.30;;;;;;5018618;28;20026;-75
2022/10/14 03:31:43;;;;;;;145.18;35.78;;;13.40;94.30;;;;;;5023741;28;20109;-76
2022/10/14 03:34:09;;;;;;;107.25;37.42;;;13.40;94.40;;;;;;5025961;28;20030;-76
2022/10/14 03:36:35;;;;;;;122.82;37.13;;;13.40;94.40;;;;;;5031606;28;20051;-76
2022/10/14 03:39:00;;;;;;;125.50;37.05;;;13.40;94.30;;;;;;5030365;28;20103;-76
2022/10/14 03:41:26;;;;;;;106.88;32.95;;;13.40;94.40;;;;;;5032591;28;20029;-76
2022/10/14 03:43:51;;;;;;;57.13;27.02;;;13.40;94.40;;;;;;5028448;28;20028;-75
2022/10/14 03:46:18;;;;;;;106.72;35.70;;;13.40;94.30;;;;;;5032700;28;20025;-76
2022/10/14 03:48:44;;;;;;;90.45;35.13;;;13.50;94.40;;;;;;5032677;28;20025;-76
2022/10/14 03:51:09;;;;;;;216.68;42.97;;;13.50;94.40;;;;;;5034971;28;20052;-75
2022/10/14 03:53:35;;;;;;;115.30;34.78;;;13.50;94.30;;;;;;5032932;28;20024;-75
2022/10/14 03:56:00;;;;;;;80.65;34.53;;;13.50;94.30;;;;;;5036823;28;20574;-76
2022/10/14 03:58:26;;;;;;;111.93;38.25;;;13.50;94.30;;;;;;5037158;28;20022;-76
2022/10/14 04:00:52;;;;;;;94.93;34.63;;;13.40;94.40;;;;;;5033166;28;20021;-77
2022/10/14 04:03:18;;;;;;;72.35;31.42;;;13.50;94.50;;;;;;5036367;28;20025;-76
2022/10/14 04:05:44;;;;;;;141.80;38.60;;;13.50;94.50;;;;;;5038365;28;20040;-76
2022/10/14 04:08:10;;;;;;;143.73;37.38;;;13.50;94.50;;;;;;5044126;28;20033;-77
2022/10/14 04:10:36;;;;;;;56.60;26.75;;;13.50;94.40;;;;;;5025739;28;20040;-76
2022/10/14 04:13:02;;;;;;;137.43;37.58;;;13.50;94.30;;;;;;5047161;28;20049;-78
2022/10/14 04:15:27;;;;;;;103.90;36.60;;;13.50;94.30;;;;;;5034537;28;20045;-76
2022/10/14 04:17:54;;;;;;;126.22;38.00;;;13.50;94.40;;;;;;5026272;28;20021;-76
2022/10/14 04:20:21;;;;;;;100.85;36.83;;;13.50;94.40;;;;;;5042114;28;20025;-76
2022/10/14 04:22:47;;;;;;;151.75;45.47;;;13.50;94.40;;;;;;5042230;28;20085;-75
2022/10/14 04:25:12;;;;;;;93.20;40.13;;;13.50;94.50;;;;;;5032812;28;20028;-77
2022/10/14 04:27:38;;;;;;;52.58;25.10;;;13.50;94.60;;;;;;5046504;28;20033;-77
2022/10/14 04:30:04;;;;;;;90.85;40.10;;;13.50;94.50;;;;;;5022612;28;20024;-76
2022/10/14 04:32:30;;;;;;;286.27;49.78;;;13.50;94.50;;;;;;5042294;28;20041;-76
2022/10/14 04:34:55;;;;;;;93.13;35.10;;;13.50;94.50;;;;;;5023395;28;20025;-76
2022/10/14 04:37:21;;;;;;;90.90;38.17;;;13.50;94.60;;;;;;5037074;28;20022;-77
2022/10/14 04:39:46;;;;;;;91.93;39.28;;;13.50;94.70;;;;;;5024487;28;20047;-76
2022/10/14 04:42:12;;;;;;;74.53;33.53;;;13.50;94.70;;;;;;5023648;28;20022;-76
2022/10/14 04:44:38;;;;;;;97.20;35.90;;;13.60;94.70;;;;;;5043624;28;20029;-77
2022/10/14 04:47:04;;;;;;;86.45;37.97;;;13.60;94.70;;;;;;5028460;28;20487;-77
2022/10/14 04:49:30;;;;;;;101.63;39.30;;;13.70;94.70;;;;;;5043285;28;20030;-78
2022/10/14 04:51:57;;;;;;;88.45;35.70;;;13.70;94.70;;;;;;5041883;28;20679;-77
2022/10/14 04:54:23;;;;;;;99.25;40.10;;;13.70;94.60;;;;;;5038603;28;20044;-77
2022/10/14 04:56:48;;;;;;;90.85;36.08;;;13.70;94.60;;;;;;5027985;28;20116;-76
2022/10/14 04:59:14;;;;;;;88.40;38.88;;;13.70;94.50;;;;;;5033333;28;20022;-76
2022/10/14 05:01:39;;;;;;;128.10;39.30;;;13.80;94.50;;;;;;5012227;28;20096;-76
2022/10/14 05:04:05;;;;;;;79.88;34.80;;;13.80;94.50;;;;;;5013344;28;20013;-77
2022/10/14 05:06:32;;;;;;;171.43;42.78;;;13.80;94.40;;;;;;5029472;28;20400;-77
2022/10/14 05:08:57;;;;;;;76.75;35.67;;;13.80;94.50;;;;;;5028734;28;20045;-76
2022/10/14 05:11:23;;;;;;;85.28;38.65;;;13.90;94.40;;;;;;5037856;28;20045;-76
2022/10/14 05:13:49;;;;;;;78.13;36.58;;;13.90;94.40;;;;;;5036232;28;20033;-76
2022/10/14 05:16:16;;;;;;;64.22;31.80;;;13.90;94.40;;;;;;5039655;28;20049;-76
2022/10/14 05:18:41;;;;;;;115.25;43.80;;;13.90;94.40;;;;;;5035462;28;20086;-76
2022/10/14 05:21:07;;;;;;;75.43;36.17;;;13.90;94.40;;;;;;5034816;28;20108;-77
2022/10/14 05:23:32;;;;;;;88.30;37.65;;;13.90;94.40;;;;;;5036116;28;20053;-77
2022/10/14 05:25:59;;;;;;;81.00;40.13;;;13.90;94.40;;;;;;5031524;28;20018;-78
2022/10/14 05:28:25;;;;;;;85.15;39.38;;;13.90;94.40;;;;;;5020657;28;20107;-75
2022/10/14 05:30:51;;;;;;;84.78;36.85;;;13.90;94.40;;;;;;5029518;28;20061;-77
2022/10/14 05:33:16;;;;;;;84.57;37.25;;;13.90;94.40;;;;;;5031069;28;20164;-76
2022/10/14 05:35:42;;;;;;;85.13;37.08;;;13.90;94.50;;;;;;5032550;28;20080;-77
2022/10/14 05:38:08;;;;;;;93.88;38.10;;;13.90;94.40;;;;;;5031786;28;20085;-76
2022/10/14 05:40:34;;;;;;;81.38;37.17;;;13.90;94.40;;;;;;5031540;28;20032;-76
2022/10/14 05:42:59;;;;;;;104.20;41.90;;;13.90;94.40;;;;;;5026704;28;20068;-76
2022/10/14 05:45:25;;;;;;;57.67;28.38;;;13.90;94.50;;;;;;5032578;28;20029;-76
2022/10/14 05:47:51;;;;;;;76.22;38.55;;;13.90;94.20;;;;;;5031596;28;20033;-76
2022/10/14 05:50:18;;;;;;;86.93;38.45;;;13.90;94.40;;;;;;5042955;28;20022;-75
2022/10/14 05:52:44;;;;;;;74.93;34.75;;;13.90;94.50;;;;;;5029280;28;20038;-76
2022/10/14 05:55:09;;;;;;;92.55;40.70;;;14.00;94.50;;;;;;5024943;28;20029;-77
2022/10/14 05:57:35;;;;;;;90.28;39.40;;;14.00;94.50;;;;;;5033192;28;20104;-77
2022/10/14 06:00:01;;;;;;;90.53;41.28;;;14.00;94.50;;;;;;5034958;28;20293;-77
2022/10/14 06:02:27;;;;;;;70.40;35.80;;;14.00;94.70;;;;;;5016625;28;20025;-77
2022/10/14 06:04:53;;;;;;;93.18;43.17;;;14.00;94.70;;;;;;5034882;28;20030;-79
2022/10/14 06:07:18;;;;;;;107.65;43.95;;;14.00;94.80;;;;;;5032995;28;20021;-77
2022/10/14 06:09:45;;;;;;;89.25;43.00;;;14.10;94.80;;;;;;5035591;28;20028;-77
2022/10/14 06:12:10;;;;;;;18.30;10.65;;;14.10;94.80;;;;;;5031078;28;20593;-76
2022/10/14 06:14:37;;;;;;;14.20;6.65;;;14.10;91.60;;;;;;5033037;28;20029;-77
2022/10/14 06:17:06;;;;;;;53.22;26.15;;;14.10;89.80;;;;;;5026072;28;20037;-77
2022/10/14 06:19:31;;;;;;;55.58;30.50;;;14.20;90.00;;;;;;5025418;28;20365;-77
2022/10/14 06:21:57;;;;;;;40.65;25.73;;;14.20;91.70;;;;;;5041524;28;20087;-78
2022/10/14 06:24:23;;;;;;;75.85;38.08;;;14.30;92.10;;;;;;5041889;28;20033;-77
2022/10/14 06:26:49;;;;;;;40.05;22.73;;;14.20;92.90;;;;;;5044539;28;20124;-77
2022/10/14 06:29:16;;;;;;;54.45;30.67;;;14.30;92.80;;;;;;5025389;28;20060;-77
2022/10/14 06:31:42;;;;;;;70.78;38.35;;;14.20;93.10;;;;;;5028343;28;20083;-76
2022/10/14 06:34:08;;;;;;;56.28;31.83;;;14.20;93.70;;;;;;5028122;28;20026;-76
2022/10/14 06:36:34;;;;;;;44.88;28.52;;;14.20;94.10;;;;;;5028987;28;20042;-76
2022/10/14 06:39:00;;;;;;;47.58;27.83;;;14.30;94.10;;;;;;5029437;28;20427;-78
2022/10/14 06:41:25;;;;;;;63.78;35.38;;;14.30;93.30;;;;;;5028667;28;20095;-78
2022/10/14 06:43:51;;;;;;;55.92;33.45;;;14.30;93.90;;;;;;5027646;28;20095;-77
2022/10/14 06:46:17;;;;;;;55.88;32.28;;;14.30;94.30;;;;;;5028987;28;20445;-76
2022/10/14 06:48:43;;;;;;;63.08;36.72;;;14.40;94.80;;;;;;5032861;28;20021;-78
2022/10/14 06:51:09;;;;;;;74.53;38.28;;;14.40;94.60;;;;;;5030663;28;20052;-77
2022/10/14 06:53:34;;;;;;;60.22;26.50;;;14.30;94.80;;;;;;5030545;28;20030;-77
2022/10/14 06:56:02;;;;;;;33.60;21.15;;;14.40;93.70;;;;;;5031184;28;20491;-78
2022/10/14 06:58:30;;;;;;;88.53;34.28;;;14.40;93.80;;;;;;5013976;28;20031;-77
2022/10/14 07:01:02;;;;;;;47.33;27.02;;;14.40;94.20;;;;;;5030701;28;20033;-76
2022/10/14 07:03:27;;;;;;;42.90;28.95;;;14.40;94.20;;;;;;5030496;28;20101;-79
2022/10/14 07:05:53;;;;;;;17.58;11.30;;;14.40;94.40;;;;;;5031756;28;20112;-78
2022/10/14 07:08:18;;;;;;;47.30;30.15;;;14.40;92.70;;;;;;5032018;28;20033;-77
2022/10/14 07:10:46;;;;;;;48.95;30.20;;;14.30;93.90;;;;;;5031874;28;20506;-79
2022/10/14 07:13:12;;;;;;;25.80;17.42;;;14.40;94.90;;;;;;5031253;28;20041;-78
2022/10/14 07:15:47;;;;;;;38.80;27.23;;;14.40;94.20;;;;;;5029734;28;20024;-79
2022/10/14 07:18:16;;;;;;;37.03;24.38;;;14.40;94.40;;;;;;5028044;28;20154;-77
2022/10/14 07:20:42;;;;;;;32.75;22.15;;;14.50;94.80;;;;;;5030168;28;20025;-78
2022/10/14 07:23:08;;;;;;;25.75;19.52;;;14.50;94.80;;;;;;5029221;28;20041;-77
2022/10/14 07:25:33;;;;;;;24.75;16.92;;;14.50;94.10;;;;;;5030522;28;20439;-79
2022/10/14 07:27:59;;;;;;;26.67;18.23;;;14.50;93.10;;;;;;5028970;28;20426;-77
2022/10/14 07:30:25;;;;;;;29.13;21.27;;;14.50;94.10;;;;;;5029042;28;20025;-78
2022/10/14 07:32:50;;;;;;;26.38;19.75;;;14.50;93.80;;;;;;5029149;28;20041;-78
2022/10/14 07:35:17;;;;;;;37.83;26.00;;;14.60;94.50;;;;;;5028008;28;20391;-77
2022/10/14 07:37:44;;;;;;;24.45;18.23;;;14.60;94.70;;;;;;5029913;28;20040;-78
2022/10/14 07:40:10;;;;;;;34.30;21.95;;;14.60;94.50;;;;;;5031618;28;20420;-78
2022/10/14 07:42:36;;;;;;;15.80;11.88;;;14.60;94.50;;;;;;5032155;28;20030;-77
2022/10/14 07:45:03;;;;;;;18.05;13.05;;;14.60;94.00;;;;;;5033734;28;20099;-79
2022/10/14 07:47:29;;;;;;;18.20;13.43;;;14.60;93.90;;;;;;5032630;28;20075;-78
2022/10/14 07:49:55;;;;;;;17.50;12.43;;;14.70;92.90;;;;;;5031966;28;20116;-77
2022/10/14 07:52:21;;;;;;;27.95;20.40;;;14.70;93.10;;;;;;5032733;28;20493;-77
2022/10/14 07:54:47;;;;;;;14.30;11.20;;;14.70;92.90;;;;;;5033136;28;20502;-77
2022/10/14 07:57:12;;;;;;;26.73;20.75;;;14.80;93.10;;;;;;5032948;28;20029;-77
2022/10/14 07:59:38;;;;;;;22.05;16.45;;;14.80;94.00;;;;;;5034347;28;20022;-78
2022/10/14 08:02:04;;;;;;;20.50;15.55;;;14.80;94.20;;;;;;5032694;28;20025;-77
2022/10/14 08:04:30;;;;;;;18.48;14.23;;;14.80;94.20;;;;;;5033466;28;20064;-78
2022/10/14 08:06:56;;;;;;;14.50;11.00;;;14.90;94.40;;;;;;5034191;28;20136;-78
2022/10/14 08:09:21;;;;;;;13.98;11.63;;;14.90;92.60;;;;;;5034219;28;20355;-77
2022/10/14 08:11:48;;;;;;;17.35;13.32;;;14.90;92.80;;;;;;5035249;28;20548;-78
2022/10/14 08:14:14;;;;;;;27.77;16.30;;;15.00;93.20;;;;;;5017616;28;20033;-79
2022/10/14 08:16:39;;;;;;;23.23;17.30;;;15.00;93.40;;;;;;5031941;28;20741;-79
2022/10/14 08:19:10;;;;;;;17.75;13.48;;;15.00;93.50;;;;;;5031645;28;20357;-78
2022/10/14 08:21:36;;;;;;;16.88;11.52;;;14.90;93.70;;;;;;5031161;28;20120;-79
2022/10/14 08:24:02;;;;;;;19.05;16.17;;;15.00;93.20;;;;;;5029695;28;20029;-78
2022/10/14 08:26:33;;;;;;;11.05;8.00;;;15.00;93.50;;;;;;5033071;28;20422;-78
2022/10/14 08:29:03;;;;;;;22.40;17.13;;;15.00;92.00;;;;;;5032203;28;20585;-78
2022/10/14 08:31:30;;;;;;;15.70;13.40;;;15.00;93.90;;;;;;5031233;28;20484;-78
2022/10/14 08:33:56;;;;;;;13.48;10.25;;;15.10;94.30;;;;;;5014330;28;20697;-78
2022/10/14 08:36:22;;;;;;;18.38;14.38;;;15.10;94.00;;;;;;5031428;28;20025;-78
2022/10/14 08:38:49;;;;;;;14.85;11.93;;;15.10;94.70;;;;;;5032974;28;20140;-77
2022/10/14 08:41:29;;;;;;;20.17;17.50;;;15.20;94.50;;;;;;5031092;28;20170;-79
2022/10/14 08:44:14;;;;;;;13.07;10.88;;;15.20;94.40;;;;;;5033168;28;20032;-78
2022/10/14 08:46:44;;;;;;;13.23;10.98;;;15.20;94.20;;;;;;5032886;28;20081;-78
2022/10/14 08:49:25;;;;;;;11.25;8.55;;;15.20;93.50;;;;;;5031481;28;20022;-77
2022/10/14 08:52:05;;;;;;;15.00;11.20;;;15.20;93.40;;;;;;5031326;28;20038;-77
2022/10/14 08:54:44;;;;;;;12.10;10.30;;;15.20;93.60;;;;;;5029968;28;20041;-80
2022/10/14 08:57:26;;;;;;;19.83;16.88;;;15.20;94.00;;;;;;5031575;28;20026;-78
2022/10/14 08:59:52;;;;;;;15.32;12.75;;;15.20;93.50;;;;;;5031299;28;20056;-78
2022/10/14 09:02:46;;;;;;;12.50;9.98;;;15.30;93.80;;;;;;5010484;28;20491;-78
2022/10/14 09:05:24;;;;;;;17.40;14.38;;;15.30;94.40;;;;;;5029518;28;20064;-77
2022/10/14 09:07:53;;;;;;;9.80;7.65;;;15.30;94.20;;;;;;5032093;28;20063;-79
2022/10/14 09:10:45;;;;;;;7.93;5.90;;;15.40;93.80;;;;;;5035765;28;20041;-80
2022/10/14 09:13:43;;;;;;;8.30;6.78;;;15.40;93.30;;;;;;5027575;28;20065;-79
2022/10/14 09:16:28;;;;;;;7.20;5.47;;;15.40;93.30;;;;;;5024615;28;20052;-79
2022/10/14 09:19:04;;;;;;;12.93;10.52;;;15.40;92.50;;;;;;5030126;28;20021;-78
2022/10/14 09:21:38;;;;;;;7.35;5.57;;;15.40;92.90;;;;;;5030495;28;20503;-80
2022/10/14 09:24:40;;;;;;;11.38;7.03;;;15.40;92.50;;;;;;5030501;28;20026;-80
2022/10/14 09:27:20;;;;;;;8.68;6.15;;;15.40;93.00;;;;;;5008750;28;20049;-78
2022/10/14 09:29:58;;;;;;;10.13;8.05;;;15.40;92.60;;;;;;5027349;28;20044;-77
2022/10/14 09:32:31;;;;;;;8.52;7.05;;;15.50;92.80;;;;;;5028165;28;20136;-78
2022/10/14 09:34:58;;;;;;;7.95;4.88;;;15.50;92.80;;;;;;5029236;28;20117;-74
2022/10/14 09:37:31;;;;;;;10.30;7.95;;;15.50;92.30;;;;;;5032975;28;20026;-78
2022/10/14 09:40:16;;;;;;;10.57;9.48;;;15.50;91.60;;;;;;5032196;28;20025;-78
2022/10/14 09:42:47;;;;;;;8.43;6.32;;;15.50;91.80;;;;;;5031372;28;20543;-78
2022/10/14 09:45:21;;;;;;;9.55;7.93;;;15.50;92.40;;;;;;5030774;28;20127;-78
2022/10/14 09:47:54;;;;;;;10.82;8.63;;;15.50;93.40;;;;;;5032677;28;20025;-77
2022/10/14 09:50:23;;;;;;;5.88;4.32;;;15.60;93.30;;;;;;5029636;28;20097;-79
2022/10/14 09:52:54;;;;;;;8.25;5.97;;;15.60;92.00;;;;;;5012363;28;20171;-78
2022/10/14 09:55:23;;;;;;;10.80;9.35;;;15.70;92.30;;;;;;5031579;28;20025;-79
2022/10/14 09:58:02;;;;;;;10.73;9.60;;;15.70;93.00;;;;;;5032328;28;20084;-79
2022/10/14 10:00:30;;;;;;;6.80;5.18;;;15.70;92.90;;;;;;5031462;28;20563;-78
2022/10/14 10:02:57;;;;;;;8.30;4.90;;;15.80;92.80;;;;;;5030264;28;20029;-78
2022/10/14 10:05:25;;;;;;;10.57;7.03;;;15.80;92.20;;;;;;5032530;28;20033;-77
2022/10/14 10:08:03;;;;;;;8.10;5.93;;;15.80;92.50;;;;;;5028351;28;20041;-77
2022/10/14 10:10:34;;;;;;;6.47;4.78;;;15.80;92.30;;;;;;5028865;28;20060;-78
2022/10/14 10:13:01;;;;;;;7.72;6.80;;;15.90;92.00;;;;;;5025204;28;20036;-78
2022/10/14 10:15:27;;;;;;;5.00;2.80;;;15.90;92.60;;;;;;5030740;28;20055;-78
2022/10/14 10:17:53;;;;;;;9.70;7.60;;;15.90;90.50;;;;;;5029987;28;20480;-77
2022/10/14 10:20:19;;;;;;;9.50;8.23;;;16.00;92.00;;;;;;5033798;28;20025;-80
2022/10/14 10:22:45;;;;;;;6.85;5.35;;;16.00;92.30;;;;;;5027831;28;20140;-77
2022/10/14 10:25:18;;;;;;;9.27;5.43;;;16.00;91.30;;;;;;5031977;28;20033;-79
2022/10/14 10:27:51;;;;;;;7.20;5.60;;;16.00;90.60;;;;;;5039225;28;20121;-78
2022/10/14 10:30:26;;;;;;;8.82;6.68;;;16.00;91.80;;;;;;5043930;28;20010;-79
2022/10/14 10:33:15;;;;;;;7.80;6.97;;;16.00;91.90;;;;;;5035863;28;20036;-78
2022/10/14 10:35:43;;;;;;;10.63;7.43;;;16.00;92.50;;;;;;5036519;28;20036;-76
2022/10/14 10:38:35;;;;;;;10.35;7.43;;;16.10;92.50;;;;;;5043695;28;20030;-78
2022/10/14 10:41:20;;;;;;;10.15;7.18;;;16.10;91.90;;;;;;5045100;28;20089;-78
2022/10/14 10:44:24;;;;;;;7.72;5.60;;;16.10;92.10;;;;;;5034096;28;20090;-76
2022/10/14 10:47:16;;;;;;;8.40;5.43;;;16.20;91.80;;;;;;5042495;28;20045;-78
2022/10/14 10:49:50;;;;;;;8.30;6.88;;;16.20;91.50;;;;;;5035287;28;20093;-77
2022/10/14 10:52:34;;;;;;;8.82;6.15;;;16.30;91.80;;;;;;5033002;28;20029;-77
2022/10/14 10:55:11;;;;;;;9.48;8.32;;;16.30;91.50;;;;;;5035242;28;20063;-78
2022/10/14 10:58:04;;;;;;;8.10;6.18;;;16.40;91.50;;;;;;5032893;28;20013;-78
2022/10/14 11:00:44;;;;;;;5.95;4.65;;;16.40;91.90;;;;;;5036481;28;20021;-76
2022/10/14 11:03:19;;;;;;;4.70;3.45;;;16.40;91.00;;;;;;5031019;28;20468;-78
2022/10/14 11:12:01;;;;;;;6.93;4.70;;;16.50;91.10;;;;;;5032192;28;20030;-79
2022/10/14 11:12:37;;;;;;;10.35;6.10;;;16.50;89.20;;;;;;5029444;28;20211;-76
2022/10/14 11:15:24;;;;;;;6.95;4.93;;;16.50;90.50;;;;;;5028886;28;20794;-76
2022/10/14 11:18:12;;;;;;;6.50;4.43;;;16.50;90.40;;;;;;5028924;28;20482;-79
2022/10/14 11:20:54;;;;;;;6.35;3.42;;;16.60;90.50;;;;;;5031583;28;20040;-78
2022/10/14 11:23:35;;;;;;;8.77;6.18;;;16.60;90.70;;;;;;5027299;28;20048;-78
2022/10/14 11:26:07;;;;;;;10.80;9.15;;;16.60;90.50;;;;;;5030961;28;20399;-78
2022/10/14 11:28:48;;;;;;;9.70;5.93;;;16.60;90.20;;;;;;5031879;28;20105;-78
2022/10/14 11:31:26;;;;;;;7.13;5.10;;;16.60;90.90;;;;;;5013773;28;20029;-76
2022/10/14 11:34:27;;;;;;;5.90;4.07;;;16.50;90.20;;;;;;5030476;28;20638;-76
2022/10/14 11:37:25;;;;;;;6.50;4.28;;;16.50;87.80;;;;;;4950400;29;20115;-77
2022/10/14 11:40:03;;;;;;;6.70;5.25;;;16.50;90.00;;;;;;4992809;28;20025;-78
2022/10/14 11:42:51;;;;;;;8.68;7.13;;;16.50;91.00;;;;;;5030675;28;20087;-80
2022/10/14 11:45:51;;;;;;;10.02;7.25;;;16.50;90.90;;;;;;5036682;28;20101;-80
2022/10/14 11:48:26;;;;;;;7.50;5.47;;;16.50;91.70;;;;;;5034809;28;20021;-78
2022/10/14 11:51:04;;;;;;;9.00;6.53;;;16.50;91.80;;;;;;5049304;28;20056;-80
2022/10/14 11:53:53;;;;;;;9.98;8.93;;;16.50;91.60;;;;;;5040001;28;20037;-79
2022/10/14 11:56:33;;;;;;;10.03;8.67;;;16.50;92.30;;;;;;5025655;28;20073;-79
2022/10/14 11:59:13;;;;;;;10.02;8.02;;;16.50;92.90;;;;;;5038884;28;20021;-78
2022/10/14 12:01:42;;;;;;;12.07;7.95;;;16.50;93.10;;;;;;5039265;28;20029;-78
2022/10/14 12:04:25;;;;;;;7.60;4.63;;;16.50;93.20;;;;;;5013311;28;20155;-78
2022/10/14 12:07:07;;;;;;;14.13;10.85;;;16.50;91.50;;;;;;5030313;28;20025;-78
2022/10/14 12:09:43;;;;;;;9.25;7.50;;;16.50;92.20;;;;;;5027156;28;20021;-79
2022/10/14 12:12:14;;;;;;;5.90;4.70;;;16.50;92.70;;;;;;5031420;28;20033;-81
2022/10/14 12:14:50;;;;;;;7.70;5.35;;;16.50;91.70;;;;;;5010482;28;20037;-79
2022/10/14 12:17:36;;;;;;;5.07;3.40;;;16.40;91.30;;;;;;5030196;28;20029;-82
2022/10/14 12:20:20;;;;;;;7.22;5.82;;;16.40;90.70;;;;;;5026866;28;20151;-77
2022/10/14 12:22:48;;;;;;;7.90;5.53;;;16.40;91.80;;;;;;5026499;28;20053;-78
2022/10/14 12:25:19;;;;;;;7.75;5.50;;;16.40;92.00;;;;;;5028439;28;20092;-78
2022/10/14 12:27:46;;;;;;;9.10;6.75;;;16.40;92.50;;;;;;5032045;28;20021;-77
2022/10/14 12:30:32;;;;;;;4.88;3.50;;;16.50;93.40;;;;;;5034045;28;20067;-78
2022/10/14 12:33:01;;;;;;;4.80;3.30;;;16.50;92.50;;;;;;5032588;28;20033;-78
2022/10/14 12:35:49;;;;;;;3.83;2.28;;;16.50;91.90;;;;;;5033795;28;20024;-77
2022/10/14 12:38:18;;;;;;;6.70;4.93;;;16.50;90.80;;;;;;5032763;28;20592;-77
2022/10/14 12:40:44;;;;;;;4.18;2.88;;;16.50;91.50;;;;;;5030845;28;20026;-80
2022/10/14 12:43:26;;;;;;;5.97;4.63;;;16.50;91.30;;;;;;5027942;28;20052;-79
2022/10/14 12:46:17;;;;;;;4.30;2.90;;;16.60;92.70;;;;;;5027065;28;20032;-79
2022/10/14 12:48:50;;;;;;;7.22;6.32;;;16.60;92.10;;;;;;5031842;28;20032;-78
2022/10/14 12:51:21;;;;;;;3.75;2.38;;;16.70;93.20;;;;;;5030615;28;20109;-78
2022/10/14 12:54:11;;;;;;;6.40;4.47;;;16.70;92.10;;;;;;5029949;28;20045;-80
2022/10/14 12:56:43;;;;;;;5.68;3.88;;;16.70;92.40;;;;;;5034840;28;20508;-80